Harlan Richardson — WDD9350 — position and weather

sailwx.info

Track history (hours):
 
Tides and Currents Weather Stations Pressure Air Temp Water Temp Dewpoint Dewpoint Depression Visibility Wind Speed Wind Dir Waves Ship Positions

Harlan Richardson

Owner: RICHARDSON MARINE LP, HOUSTON, TX. More information available from US FCC via Universal Licensing System and Coast Guard Vessel Documentation Center.

Last reported at 2017-Oct-19 23:21 UTC. Time now 2017-Oct-19 23:40 UTC.
Position N 29°42' W 094°55'.

Length 15 m; draft 9 m.

Type: Towing. MMSI: 367310170.

Date/timePositionNaut miles runAvg speedWind from/ knotsBaromVisibWave heightAir tempDewpointWater temp
2017-Oct-19 23:21N 29°42' W 094°55'0 0.0
2017-Oct-19 20:38N 29°42' W 094°55'0 0.0
2017-Oct-19 18:38N 29°42' W 094°55'0 0.0
2017-Oct-19 15:51N 29°42' W 094°55'0 0.0
2017-Oct-19 09:05N 29°42' W 094°55'0 0.0
2017-Oct-19 08:48N 29°42' W 094°55'0 0.0
2017-Oct-18 19:01N 29°42' W 094°55'0 1.4
2017-Oct-18 19:00N 29°42' W 094°55'3 3.4
2017-Oct-18 18:16N 29°41' W 094°58'1 4.3
2017-Oct-18 18:00N 29°41' W 094°59'4 6.6
2017-Oct-18 17:24N 29°44' W 095°03'5 5.4
2017-Oct-18 16:33N 29°44' W 095°08'0 7.4
2017-Oct-18 16:30N 29°44' W 095°09'2 4.5
2017-Oct-18 15:57N 29°45' W 095°11'0 0.0
2017-Oct-18 15:04N 29°45' W 095°11'0 0.0
2017-Oct-18 14:56N 29°45' W 095°11'0 0.0
2017-Oct-18 13:59N 29°45' W 095°11'0 0.0
2017-Oct-18 13:30N 29°45' W 095°11'0 0.0
2017-Oct-18 13:00N 29°45' W 095°11'0 0.0
2017-Oct-18 12:30N 29°45' W 095°11'0 0.0
2017-Oct-18 12:00N 29°45' W 095°11'0 0.0
2017-Oct-18 11:30N 29°45' W 095°11'0 0.0
2017-Oct-18 10:59N 29°45' W 095°11'0 0.0
2017-Oct-18 10:30N 29°45' W 095°11'0 0.0
2017-Oct-18 09:59N 29°45' W 095°11'0 0.0
2017-Oct-18 09:29N 29°45' W 095°11'0 0.0
2017-Oct-18 09:00N 29°45' W 095°11'0 0.0
2017-Oct-18 08:29N 29°45' W 095°11'0 0.0
2017-Oct-18 08:00N 29°45' W 095°11'0 0.0
2017-Oct-18 07:21N 29°45' W 095°11'0 0.0
2017-Oct-18 07:00N 29°45' W 095°11'0 0.0
2017-Oct-18 06:30N 29°45' W 095°11'3 5.1
2017-Oct-18 06:00N 29°44' W 095°09'3 5.4
2017-Oct-18 05:30N 29°45' W 095°06'1 2.1
2017-Oct-18 05:00N 29°46' W 095°05'3 5.0
2017-Oct-18 04:30N 29°44' W 095°03'2 4.8
2017-Oct-18 04:00N 29°42' W 095°01'2 4.5
2017-Oct-18 03:30N 29°41' W 094°58'2 4.9
2017-Oct-18 03:00N 29°40' W 094°56'2 0.7
2017-Oct-18 00:46N 29°42' W 094°55'0 0.3
2017-Oct-18 00:30N 29°42' W 094°55'0 0.5
2017-Oct-18 00:00N 29°42' W 094°55'2 2.7
2017-Oct-17 23:19N 29°41' W 094°57'1 4.2
2017-Oct-17 23:00N 29°41' W 094°59'1 2.2
2017-Oct-17 22:30N 29°40' W 094°58'3 5.4
2017-Oct-17 22:00N 29°38' W 094°58'2 4.1
2017-Oct-17 21:30N 29°37' W 094°60'0 0.6
2017-Oct-17 21:00N 29°37' W 095°00'0 0.0
2017-Oct-17 20:30N 29°37' W 095°00'0 0.0
2017-Oct-17 20:00N 29°37' W 095°00'0 0.0
2017-Oct-17 19:30N 29°37' W 095°00'0 0.0
2017-Oct-17 19:00N 29°37' W 095°00'0 0.1
2017-Oct-17 18:30N 29°37' W 095°00'0 0.0
2017-Oct-17 18:00N 29°37' W 095°00'0 0.1
2017-Oct-17 17:30N 29°37' W 095°00'0 0.0
2017-Oct-17 17:00N 29°37' W 095°00'0 0.0
2017-Oct-17 16:30N 29°37' W 095°00'0 0.0
2017-Oct-17 16:00N 29°37' W 095°00'0 0.0
2017-Oct-17 15:31N 29°37' W 095°00'0 0.0
2017-Oct-17 15:00N 29°37' W 095°00'0 0.0
2017-Oct-17 14:30N 29°37' W 095°00'0 0.1
2017-Oct-17 14:01N 29°37' W 095°00'0 0.1
2017-Oct-17 13:31N 29°37' W 095°00'0 0.0
2017-Oct-17 13:00N 29°37' W 095°00'0 0.1
2017-Oct-17 12:30N 29°37' W 095°00'0 0.0
2017-Oct-17 12:01N 29°37' W 095°00'0 0.1
2017-Oct-17 11:30N 29°37' W 095°00'0 0.0
2017-Oct-17 11:00N 29°37' W 095°00'0 0.0
2017-Oct-17 10:30N 29°37' W 095°00'0 0.0
2017-Oct-17 10:01N 29°37' W 095°00'0 0.0
2017-Oct-17 09:31N 29°37' W 095°00'0 0.0
2017-Oct-17 09:00N 29°37' W 095°00'0 0.0
2017-Oct-17 08:30N 29°37' W 095°00'0 0.0
2017-Oct-17 08:01N 29°37' W 095°00'0 0.0
2017-Oct-17 07:30N 29°37' W 095°00'0 0.0
2017-Oct-17 07:00N 29°37' W 095°00'0 0.0
2017-Oct-17 06:31N 29°37' W 095°00'0 0.0
2017-Oct-17 06:00N 29°37' W 095°00'0 0.0
2017-Oct-17 05:30N 29°37' W 095°00'0 0.0
2017-Oct-17 05:00N 29°37' W 095°00'0 0.0
2017-Oct-17 04:30N 29°37' W 095°00'0 0.0
2017-Oct-17 04:01N 29°37' W 095°00'0 0.0
2017-Oct-17 03:31N 29°37' W 095°00'0 0.0
2017-Oct-17 03:00N 29°37' W 095°00'0 0.0
2017-Oct-17 02:30N 29°37' W 095°00'1 1.2
2017-Oct-17 02:00N 29°37' W 094°59'2 3.4
2017-Oct-17 01:30N 29°37' W 094°58'2 4.0
2017-Oct-17 01:00N 29°39' W 094°58'2 3.7
2017-Oct-17 00:31N 29°41' W 094°59'1 2.2
2017-Oct-17 00:00N 29°41' W 094°57'2 3.0
2017-Oct-16 23:30N 29°40' W 094°56'1 2.2
2017-Oct-16 23:00N 29°41' W 094°55'1 0.9
2017-Oct-16 22:13N 29°42' W 094°55'0 1.4
2017-Oct-16 21:53N 29°42' W 094°56'1 1.6
2017-Oct-16 21:27N 29°43' W 094°56'1 0.3
2017-Oct-16 17:34N 29°42' W 094°55'0 0.0
2017-Oct-16 04:43N 29°42' W 094°55'1 5.2
2017-Oct-16 04:30N 29°41' W 094°56'2 5.0
2017-Oct-16 04:00N 29°41' W 094°58'1 2.5
2017-Oct-16 03:30N 29°41' W 094°57'1 2.5
2017-Oct-16 03:00N 29°41' W 094°56'2 3.1
2017-Oct-16 02:29N 29°42' W 094°56'0 0.0
2017-Oct-14 01:15N 29°43' W 094°56'0 0.1
2017-Oct-13 23:20N 29°43' W 094°56'0 0.0
2017-Oct-13 20:35N 29°43' W 094°56'0 0.0
2017-Oct-13 19:13N 29°43' W 094°56'0 0.0
2017-Oct-13 18:59N 29°43' W 094°56'0 0.0
2017-Oct-13 17:45N 29°43' W 094°56'0 0.1
2017-Oct-13 17:31N 29°43' W 094°56'0 0.0
2017-Oct-13 15:04N 29°43' W 094°56'0 0.1
2017-Oct-13 14:59N 29°43' W 094°56'0 0.0
2017-Oct-13 12:25N 29°43' W 094°56'1 0.0
2017-Oct-12 22:03N 29°43' W 094°57'1 5.5
2017-Oct-12 21:56N 29°43' W 094°56'1 1.9
2017-Oct-12 21:30N 29°42' W 094°55'1 1.4
2017-Oct-12 20:58N 29°41' W 094°55'2 3.1
2017-Oct-12 20:28N 29°41' W 094°57'2 5.1
2017-Oct-12 20:00N 29°41' W 094°60'1 2.0
2017-Oct-12 19:30N 29°41' W 094°59'3 0.6
2017-Oct-12 14:14N 29°42' W 094°55'0 0.0
2017-Oct-12 06:04N 29°42' W 094°55'0 0.0
2017-Oct-12 05:49N 29°42' W 094°55'0 0.0
2017-Oct-12 03:23N 29°42' W 094°55'2 4.1
2017-Oct-12 02:54N 29°41' W 094°57'2 6.2
2017-Oct-12 02:30N 29°41' W 094°60'0 0.0
2017-Oct-12 02:00N 29°41' W 094°60'0 0.4
2017-Oct-12 01:31N 29°41' W 094°60'2 4.3
2017-Oct-12 01:01N 29°41' W 094°57'2 3.3
2017-Oct-12 00:30N 29°41' W 094°55'1 0.3
2017-Oct-11 21:25N 29°42' W 094°55'1 2.1
2017-Oct-11 20:55N 29°42' W 094°56'0 0.8
2017-Oct-11 20:30N 29°43' W 094°56'0 0.0
2017-Oct-11 19:43N 29°43' W 094°56'1 0.0
2017-Oct-10 23:33N 29°43' W 094°57'1 5.6
2017-Oct-10 23:26N 29°43' W 094°56'1 3.0
2017-Oct-10 23:00N 29°42' W 094°55'0 0.0
2017-Oct-10 19:13N 29°42' W 094°55'0 0.3
2017-Oct-10 18:51N 29°42' W 094°55'1 2.7
2017-Oct-10 18:24N 29°43' W 094°56'0 0.0
2017-Oct-10 13:36N 29°43' W 094°56'0 0.0
2017-Oct-10 13:06N 29°43' W 094°56'0 0.0
2017-Oct-10 10:55N 29°43' W 094°56'0 0.0
2017-Oct-10 10:18N 29°43' W 094°56'0 0.0
2017-Oct-10 00:30N 29°43' W 094°56'1 1.6
2017-Oct-09 23:56N 29°42' W 094°55'0 0.8
2017-Oct-09 23:24N 29°42' W 094°55'  
Track history (hours):
 
Tides and Currents Weather Stations Pressure Air Temp Water Temp Dewpoint Dewpoint Depression Visibility Wind Speed Wind Dir Waves Ship Positions

Harlan Richardson

Owner: RICHARDSON MARINE LP, HOUSTON, TX. More information available from US FCC via Universal Licensing System and Coast Guard Vessel Documentation Center.

Last reported at 2017-Oct-19 23:21 UTC. Time now 2017-Oct-19 23:40 UTC.
Position N 29°42' W 094°55'.

Length 15 m; draft 9 m.

Type: Towing. MMSI: 367310170.

Date/timePositionNaut miles runAvg speedWind from/ knotsBaromVisibWave heightAir tempDewpointWater temp
2017-Oct-19 23:21N 29°42' W 094°55'0 0.0
2017-Oct-19 20:38N 29°42' W 094°55'0 0.0
2017-Oct-19 18:38N 29°42' W 094°55'0 0.0
2017-Oct-19 15:51N 29°42' W 094°55'0 0.0
2017-Oct-19 09:05N 29°42' W 094°55'0 0.0
2017-Oct-19 08:48N 29°42' W 094°55'0 0.0
2017-Oct-18 19:01N 29°42' W 094°55'0 1.4
2017-Oct-18 19:00N 29°42' W 094°55'3 3.4
2017-Oct-18 18:16N 29°41' W 094°58'1 4.3
2017-Oct-18 18:00N 29°41' W 094°59'4 6.6
2017-Oct-18 17:24N 29°44' W 095°03'5 5.4
2017-Oct-18 16:33N 29°44' W 095°08'0 7.4
2017-Oct-18 16:30N 29°44' W 095°09'2 4.5
2017-Oct-18 15:57N 29°45' W 095°11'0 0.0
2017-Oct-18 15:04N 29°45' W 095°11'0 0.0
2017-Oct-18 14:56N 29°45' W 095°11'0 0.0
2017-Oct-18 13:59N 29°45' W 095°11'0 0.0
2017-Oct-18 13:30N 29°45' W 095°11'0 0.0
2017-Oct-18 13:00N 29°45' W 095°11'0 0.0
2017-Oct-18 12:30N 29°45' W 095°11'0 0.0
2017-Oct-18 12:00N 29°45' W 095°11'0 0.0
2017-Oct-18 11:30N 29°45' W 095°11'0 0.0
2017-Oct-18 10:59N 29°45' W 095°11'0 0.0
2017-Oct-18 10:30N 29°45' W 095°11'0 0.0
2017-Oct-18 09:59N 29°45' W 095°11'0 0.0
2017-Oct-18 09:29N 29°45' W 095°11'0 0.0
2017-Oct-18 09:00N 29°45' W 095°11'0 0.0
2017-Oct-18 08:29N 29°45' W 095°11'0 0.0
2017-Oct-18 08:00N 29°45' W 095°11'0 0.0
2017-Oct-18 07:21N 29°45' W 095°11'0 0.0
2017-Oct-18 07:00N 29°45' W 095°11'0 0.0
2017-Oct-18 06:30N 29°45' W 095°11'3 5.1
2017-Oct-18 06:00N 29°44' W 095°09'3 5.4
2017-Oct-18 05:30N 29°45' W 095°06'1 2.1
2017-Oct-18 05:00N 29°46' W 095°05'3 5.0
2017-Oct-18 04:30N 29°44' W 095°03'2 4.8
2017-Oct-18 04:00N 29°42' W 095°01'2 4.5
2017-Oct-18 03:30N 29°41' W 094°58'2 4.9
2017-Oct-18 03:00N 29°40' W 094°56'2 0.7
2017-Oct-18 00:46N 29°42' W 094°55'0 0.3
2017-Oct-18 00:30N 29°42' W 094°55'0 0.5
2017-Oct-18 00:00N 29°42' W 094°55'2 2.7
2017-Oct-17 23:19N 29°41' W 094°57'1 4.2
2017-Oct-17 23:00N 29°41' W 094°59'1 2.2
2017-Oct-17 22:30N 29°40' W 094°58'3 5.4
2017-Oct-17 22:00N 29°38' W 094°58'2 4.1
2017-Oct-17 21:30N 29°37' W 094°60'0 0.6
2017-Oct-17 21:00N 29°37' W 095°00'0 0.0
2017-Oct-17 20:30N 29°37' W 095°00'0 0.0
2017-Oct-17 20:00N 29°37' W 095°00'0 0.0
2017-Oct-17 19:30N 29°37' W 095°00'0 0.0
2017-Oct-17 19:00N 29°37' W 095°00'0 0.1
2017-Oct-17 18:30N 29°37' W 095°00'0 0.0
2017-Oct-17 18:00N 29°37' W 095°00'0 0.1
2017-Oct-17 17:30N 29°37' W 095°00'0 0.0
2017-Oct-17 17:00N 29°37' W 095°00'0 0.0
2017-Oct-17 16:30N 29°37' W 095°00'0 0.0
2017-Oct-17 16:00N 29°37' W 095°00'0 0.0
2017-Oct-17 15:31N 29°37' W 095°00'0 0.0
2017-Oct-17 15:00N 29°37' W 095°00'0 0.0
2017-Oct-17 14:30N 29°37' W 095°00'0 0.1
2017-Oct-17 14:01N 29°37' W 095°00'0 0.1
2017-Oct-17 13:31N 29°37' W 095°00'0 0.0
2017-Oct-17 13:00N 29°37' W 095°00'0 0.1
2017-Oct-17 12:30N 29°37' W 095°00'0 0.0
2017-Oct-17 12:01N 29°37' W 095°00'0 0.1
2017-Oct-17 11:30N 29°37' W 095°00'0 0.0
2017-Oct-17 11:00N 29°37' W 095°00'0 0.0
2017-Oct-17 10:30N 29°37' W 095°00'0 0.0
2017-Oct-17 10:01N 29°37' W 095°00'0 0.0
2017-Oct-17 09:31N 29°37' W 095°00'0 0.0
2017-Oct-17 09:00N 29°37' W 095°00'0 0.0
2017-Oct-17 08:30N 29°37' W 095°00'0 0.0
2017-Oct-17 08:01N 29°37' W 095°00'0 0.0
2017-Oct-17 07:30N 29°37' W 095°00'0 0.0
2017-Oct-17 07:00N 29°37' W 095°00'0 0.0
2017-Oct-17 06:31N 29°37' W 095°00'0 0.0
2017-Oct-17 06:00N 29°37' W 095°00'0 0.0
2017-Oct-17 05:30N 29°37' W 095°00'0 0.0
2017-Oct-17 05:00N 29°37' W 095°00'0 0.0
2017-Oct-17 04:30N 29°37' W 095°00'0 0.0
2017-Oct-17 04:01N 29°37' W 095°00'0 0.0
2017-Oct-17 03:31N 29°37' W 095°00'0 0.0
2017-Oct-17 03:00N 29°37' W 095°00'0 0.0
2017-Oct-17 02:30N 29°37' W 095°00'1 1.2
2017-Oct-17 02:00N 29°37' W 094°59'2 3.4
2017-Oct-17 01:30N 29°37' W 094°58'2 4.0
2017-Oct-17 01:00N 29°39' W 094°58'2 3.7
2017-Oct-17 00:31N 29°41' W 094°59'1 2.2
2017-Oct-17 00:00N 29°41' W 094°57'2 3.0
2017-Oct-16 23:30N 29°40' W 094°56'1 2.2
2017-Oct-16 23:00N 29°41' W 094°55'1 0.9
2017-Oct-16 22:13N 29°42' W 094°55'0 1.4
2017-Oct-16 21:53N 29°42' W 094°56'1 1.6
2017-Oct-16 21:27N 29°43' W 094°56'1 0.3
2017-Oct-16 17:34N 29°42' W 094°55'0 0.0
2017-Oct-16 04:43N 29°42' W 094°55'1 5.2
2017-Oct-16 04:30N 29°41' W 094°56'2 5.0
2017-Oct-16 04:00N 29°41' W 094°58'1 2.5
2017-Oct-16 03:30N 29°41' W 094°57'1 2.5
2017-Oct-16 03:00N 29°41' W 094°56'2 3.1
2017-Oct-16 02:29N 29°42' W 094°56'0 0.0
2017-Oct-14 01:15N 29°43' W 094°56'0 0.1
2017-Oct-13 23:20N 29°43' W 094°56'0 0.0
2017-Oct-13 20:35N 29°43' W 094°56'0 0.0
2017-Oct-13 19:13N 29°43' W 094°56'0 0.0
2017-Oct-13 18:59N 29°43' W 094°56'0 0.0
2017-Oct-13 17:45N 29°43' W 094°56'0 0.1
2017-Oct-13 17:31N 29°43' W 094°56'0 0.0
2017-Oct-13 15:04N 29°43' W 094°56'0 0.1
2017-Oct-13 14:59N 29°43' W 094°56'0 0.0
2017-Oct-13 12:25N 29°43' W 094°56'1 0.0
2017-Oct-12 22:03N 29°43' W 094°57'1 5.5
2017-Oct-12 21:56N 29°43' W 094°56'1 1.9
2017-Oct-12 21:30N 29°42' W 094°55'1 1.4
2017-Oct-12 20:58N 29°41' W 094°55'2 3.1
2017-Oct-12 20:28N 29°41' W 094°57'2 5.1
2017-Oct-12 20:00N 29°41' W 094°60'1 2.0
2017-Oct-12 19:30N 29°41' W 094°59'3 0.6
2017-Oct-12 14:14N 29°42' W 094°55'0 0.0
2017-Oct-12 06:04N 29°42' W 094°55'0 0.0
2017-Oct-12 05:49N 29°42' W 094°55'0 0.0
2017-Oct-12 03:23N 29°42' W 094°55'2 4.1
2017-Oct-12 02:54N 29°41' W 094°57'2 6.2
2017-Oct-12 02:30N 29°41' W 094°60'0 0.0
2017-Oct-12 02:00N 29°41' W 094°60'0 0.4
2017-Oct-12 01:31N 29°41' W 094°60'2 4.3
2017-Oct-12 01:01N 29°41' W 094°57'2 3.3
2017-Oct-12 00:30N 29°41' W 094°55'1 0.3
2017-Oct-11 21:25N 29°42' W 094°55'1 2.1
2017-Oct-11 20:55N 29°42' W 094°56'0 0.8
2017-Oct-11 20:30N 29°43' W 094°56'0 0.0
2017-Oct-11 19:43N 29°43' W 094°56'1 0.0
2017-Oct-10 23:33N 29°43' W 094°57'1 5.6
2017-Oct-10 23:26N 29°43' W 094°56'1 3.0
2017-Oct-10 23:00N 29°42' W 094°55'0 0.0
2017-Oct-10 19:13N 29°42' W 094°55'0 0.3
2017-Oct-10 18:51N 29°42' W 094°55'1 2.7
2017-Oct-10 18:24N 29°43' W 094°56'0 0.0
2017-Oct-10 13:36N 29°43' W 094°56'0 0.0
2017-Oct-10 13:06N 29°43' W 094°56'0 0.0
2017-Oct-10 10:55N 29°43' W 094°56'0 0.0
2017-Oct-10 10:18N 29°43' W 094°56'0 0.0
2017-Oct-10 00:30N 29°43' W 094°56'1 1.6
2017-Oct-09 23:56N 29°42' W 094°55'0 0.8
2017-Oct-09 23:24N 29°42' W 094°55'  

Dump ship's entire track history